Time;durP1;ratioP1;P1;durP2;ratioP2;P2;SDS_P1;SDS_P2;PMS_P1;PMS_P2;Temp;Humidity;BMP_temperature;BMP_pressure;BME280_temperature;BME280_humidity;BME280_pressure;Samples;Min_cycle;Max_cycle;Signal;HPM_P1;HPM_P2
2022/11/14 00:01:18;;;;;;;15.98;7.70;;;7.40;99.90;;;;;;6214531;23;20059;-84
2022/11/14 00:03:44;;;;;;;15.30;6.70;;;7.20;99.90;;;;;;6188865;23;20025;-85
2022/11/14 00:06:10;;;;;;;13.20;6.28;;;7.00;99.90;;;;;;6215496;23;20016;-85
2022/11/14 00:08:36;;;;;;;11.75;5.65;;;7.60;99.90;;;;;;6215208;23;20058;-85
2022/11/14 00:11:02;;;;;;;19.05;7.53;;;7.40;99.90;;;;;;6215856;23;20471;-85
2022/11/14 00:13:27;;;;;;;16.05;7.68;;;7.20;99.90;;;;;;6215926;23;20015;-86
2022/11/14 00:15:53;;;;;;;18.13;7.72;;;7.50;99.90;;;;;;6215974;23;20024;-85
2022/11/14 00:18:19;;;;;;;15.18;7.20;;;6.70;99.90;;;;;;6214523;23;20095;-85
2022/11/14 00:20:49;;;;;;;14.02;5.65;;;7.40;99.90;;;;;;6189067;23;20025;-85
2022/11/14 00:23:15;;;;;;;13.38;6.10;;;7.30;99.90;;;;;;6215537;23;20040;-86
2022/11/14 00:25:43;;;;;;;16.88;7.38;;;5.90;99.90;;;;;;6188969;23;20538;-85
2022/11/14 00:28:08;;;;;;;17.55;7.88;;;7.70;99.90;;;;;;6189044;23;20447;-86
2022/11/14 00:30:34;;;;;;;18.58;8.13;;;7.30;99.90;;;;;;6164118;23;20105;-86
2022/11/14 00:33:00;;;;;;;19.17;8.48;;;6.70;99.90;;;;;;6215310;23;20315;-85
2022/11/14 00:35:25;;;;;;;20.48;8.38;;;7.20;99.90;;;;;;6188458;23;20075;-86
2022/11/14 00:37:51;;;;;;;21.42;8.48;;;6.80;99.90;;;;;;6188863;23;20028;-86
2022/11/14 00:40:17;;;;;;;20.00;8.98;;;6.80;99.90;;;;;;6215561;23;20096;-85
2022/11/14 00:42:43;;;;;;;18.80;8.40;;;6.80;99.90;;;;;;6215561;23;20024;-86
2022/11/14 00:45:10;;;;;;;21.17;9.07;;;6.20;99.90;;;;;;6188582;23;20012;-86
2022/11/14 00:47:35;;;;;;;24.52;10.98;;;6.80;99.90;;;;;;6215210;23;20026;-85
2022/11/14 00:50:02;;;;;;;19.98;9.15;;;7.90;99.90;;;;;;6188882;23;20055;-85
2022/11/14 00:52:27;;;;;;;23.83;9.35;;;6.80;99.90;;;;;;6188396;23;20327;-85
2022/11/14 00:54:53;;;;;;;25.23;11.38;;;7.40;99.90;;;;;;6188964;23;20059;-85
2022/11/14 00:57:19;;;;;;;18.08;8.65;;;7.50;99.90;;;;;;6215684;23;20020;-85
2022/11/14 00:59:44;;;;;;;22.25;9.73;;;7.10;99.90;;;;;;6215278;23;20059;-85
2022/11/14 01:02:10;;;;;;;20.33;9.90;;;7.70;99.90;;;;;;6188681;23;20026;-85
2022/11/14 01:04:36;;;;;;;24.85;11.40;;;7.70;99.90;;;;;;6214725;23;20017;-86
2022/11/14 01:07:01;;;;;;;28.70;13.07;;;7.80;99.90;;;;;;6214962;23;20414;-86
2022/11/14 01:09:27;;;;;;;28.17;13.73;;;7.70;99.90;;;;;;6215377;23;20083;-86
2022/11/14 01:11:52;;;;;;;27.25;13.05;;;6.10;99.90;;;;;;6215078;23;20506;-85
2022/11/14 01:14:18;;;;;;;26.45;12.63;;;8.00;99.90;;;;;;6215529;23;20016;-85
2022/11/14 01:16:44;;;;;;;26.77;12.07;;;6.90;99.90;;;;;;6215154;23;20027;-85
2022/11/14 01:19:09;;;;;;;29.60;14.45;;;6.70;99.90;;;;;;6215730;23;20019;-85
2022/11/14 01:21:35;;;;;;;28.35;13.85;;;8.20;99.90;;;;;;6215429;23;20016;-85
2022/11/14 01:24:01;;;;;;;25.88;12.13;;;8.10;99.90;;;;;;6188475;23;20039;-85
2022/11/14 01:26:26;;;;;;;25.98;12.43;;;6.60;99.90;;;;;;6188305;23;20078;-86
2022/11/14 01:28:52;;;;;;;21.40;11.50;;;6.90;99.90;;;;;;6215140;23;20016;-85
2022/11/14 01:31:21;;;;;;;26.92;12.25;;;6.70;99.90;;;;;;6188920;23;20091;-85
2022/11/14 01:33:51;;;;;;;23.27;11.50;;;5.80;99.90;;;;;;6214693;23;20044;-85
2022/11/14 01:36:18;;;;;;;26.45;13.00;;;7.30;99.90;;;;;;6215321;23;20023;-86
2022/11/14 01:38:44;;;;;;;25.80;11.38;;;5.20;99.90;;;;;;6187984;23;20024;-85
2022/11/14 01:41:14;;;;;;;23.52;11.30;;;8.00;99.90;;;;;;6215274;23;20336;-86
2022/11/14 01:43:41;;;;;;;27.95;12.48;;;6.80;99.90;;;;;;6215224;23;20016;-85
2022/11/14 01:46:16;;;;;;;25.10;12.63;;;7.30;99.90;;;;;;6214907;23;20020;-85
2022/11/14 01:48:44;;;;;;;31.75;12.98;;;6.80;99.90;;;;;;6214807;23;20013;-85
2022/11/14 01:51:15;;;;;;;30.70;13.32;;;7.30;99.90;;;;;;6214808;23;20017;-85
2022/11/14 01:53:41;;;;;;;27.98;12.52;;;7.30;99.90;;;;;;6188300;23;20316;-86
2022/11/14 01:56:12;;;;;;;25.95;11.93;;;6.80;99.90;;;;;;6190498;23;20430;-85
2022/11/14 01:58:42;;;;;;;30.63;13.55;;;6.40;99.90;;;;;;6217141;23;20005;-85
2022/11/14 02:01:08;;;;;;;25.60;11.90;;;7.00;99.90;;;;;;6216581;23;20013;-85
2022/11/14 02:03:37;;;;;;;35.63;14.88;;;7.50;99.90;;;;;;6216743;23;20016;-85
2022/11/14 02:06:05;;;;;;;31.30;13.95;;;5.70;99.90;;;;;;6190005;23;20028;-86
2022/11/14 02:08:33;;;;;;;28.85;13.70;;;6.80;99.90;;;;;;6217265;23;20051;-86
2022/11/14 02:10:58;;;;;;;28.67;13.13;;;6.70;99.90;;;;;;6216467;23;20017;-84
2022/11/14 02:13:24;;;;;;;28.48;13.02;;;6.70;99.90;;;;;;6216871;23;20478;-85
2022/11/14 02:15:51;;;;;;;32.00;13.65;;;7.30;99.90;;;;;;6190325;23;20023;-85
2022/11/14 02:18:17;;;;;;;31.17;15.32;;;6.90;99.90;;;;;;6216799;23;20009;-85
2022/11/14 02:20:42;;;;;;;32.05;14.60;;;7.90;99.90;;;;;;6189918;23;20104;-86
2022/11/14 02:23:11;;;;;;;31.60;13.63;;;7.70;99.90;;;;;;6189806;23;20017;-85
2022/11/14 02:25:38;;;;;;;34.38;15.50;;;7.10;99.90;;;;;;6189862;23;20021;-86
2022/11/14 02:28:06;;;;;;;25.90;13.02;;;6.80;99.90;;;;;;6190101;23;20059;-86
2022/11/14 02:30:31;;;;;;;28.70;12.95;;;7.60;99.90;;;;;;6216327;23;20013;-85
2022/11/14 02:32:57;;;;;;;28.45;11.95;;;7.10;99.90;;;;;;6189849;23;20021;-86
2022/11/14 02:35:23;;;;;;;25.42;12.10;;;7.30;99.90;;;;;;6165526;23;20025;-86
2022/11/14 02:37:48;;;;;;;29.33;14.55;;;5.30;99.90;;;;;;6216995;23;20021;-87
2022/11/14 02:40:14;;;;;;;34.72;15.57;;;6.90;99.90;;;;;;6216458;23;20055;-86
2022/11/14 02:42:40;;;;;;;22.73;11.63;;;7.80;99.90;;;;;;6217035;23;20063;-86
2022/11/14 02:45:07;;;;;;;33.42;14.82;;;7.80;99.90;;;;;;6217093;23;20044;-86
2022/11/14 02:47:33;;;;;;;28.33;12.93;;;6.70;99.90;;;;;;6189955;23;20017;-86
2022/11/14 02:49:58;;;;;;;24.83;12.45;;;7.60;99.90;;;;;;6216790;23;20088;-86
2022/11/14 02:52:24;;;;;;;27.30;12.43;;;7.60;99.90;;;;;;6216600;23;20502;-86
2022/11/14 02:54:50;;;;;;;32.35;13.35;;;6.70;99.90;;;;;;6216836;23;20332;-86
2022/11/14 02:57:15;;;;;;;25.80;12.95;;;6.90;99.90;;;;;;6189932;23;20082;-86
2022/11/14 02:59:41;;;;;;;29.20;12.90;;;5.70;99.90;;;;;;6189826;23;20100;-86
2022/11/14 03:02:07;;;;;;;27.13;13.15;;;6.70;99.90;;;;;;6189481;23;20016;-86
2022/11/14 03:04:32;;;;;;;25.45;11.50;;;6.70;99.90;;;;;;6216249;23;20104;-87
2022/11/14 03:06:58;;;;;;;22.48;10.85;;;7.40;99.90;;;;;;6189791;23;20347;-86
2022/11/14 03:09:23;;;;;;;25.83;11.48;;;7.30;99.90;;;;;;6216115;23;20028;-86
2022/11/14 03:11:49;;;;;;;26.10;12.13;;;7.30;99.90;;;;;;6189758;23;20028;-86
2022/11/14 03:14:15;;;;;;;26.42;11.40;;;7.30;99.90;;;;;;6189726;23;20016;-86
2022/11/14 03:16:40;;;;;;;29.20;13.63;;;6.50;99.90;;;;;;6190166;23;20021;-87
2022/11/14 03:19:06;;;;;;;30.35;13.98;;;6.30;99.90;;;;;;6216920;23;20032;-86
2022/11/14 03:21:32;;;;;;;28.63;12.77;;;7.40;99.90;;;;;;6189263;23;20159;-87
2022/11/14 03:23:57;;;;;;;27.95;13.52;;;7.80;99.90;;;;;;6216582;23;20017;-86
2022/11/14 03:26:23;;;;;;;28.90;13.63;;;6.10;99.90;;;;;;6189981;23;20352;-86
2022/11/14 03:28:49;;;;;;;34.00;15.20;;;7.40;99.90;;;;;;6189776;23;20048;-86
2022/11/14 03:31:15;;;;;;;31.65;14.63;;;7.60;99.90;;;;;;6189632;23;20438;-86
2022/11/14 03:33:40;;;;;;;29.30;13.15;;;7.70;99.90;;;;;;6216072;23;20075;-87
2022/11/14 03:36:07;;;;;;;25.80;13.48;;;7.30;99.90;;;;;;6216451;23;20440;-87
2022/11/14 03:38:33;;;;;;;30.95;13.77;;;6.80;99.90;;;;;;6189473;23;20016;-86
2022/11/14 03:41:00;;;;;;;29.95;13.88;;;7.90;99.90;;;;;;6216363;23;20344;-86
2022/11/14 03:43:29;;;;;;;30.35;14.38;;;7.60;99.90;;;;;;6189550;23;20386;-85
2022/11/14 03:45:57;;;;;;;24.77;12.20;;;7.00;99.90;;;;;;6216280;23;20063;-86
2022/11/14 03:48:23;;;;;;;28.30;14.07;;;7.80;99.90;;;;;;6164677;23;20016;-86
2022/11/14 03:50:49;;;;;;;27.33;13.43;;;6.80;99.90;;;;;;6216108;23;20099;-85
2022/11/14 03:53:14;;;;;;;30.17;14.15;;;6.90;99.90;;;;;;6189096;23;20024;-87
2022/11/14 03:55:42;;;;;;;28.90;13.85;;;6.90;99.90;;;;;;6189457;23;20099;-87
2022/11/14 03:58:08;;;;;;;30.42;14.25;;;7.90;99.90;;;;;;6216356;23;20021;-86
2022/11/14 04:00:34;;;;;;;34.63;15.57;;;7.70;99.90;;;;;;6164264;23;20101;-86
2022/11/14 04:02:59;;;;;;;35.60;15.68;;;6.90;99.90;;;;;;6215611;23;20016;-85
2022/11/14 04:05:25;;;;;;;32.53;15.18;;;7.70;99.90;;;;;;6215473;23;20027;-85
2022/11/14 04:07:51;;;;;;;32.15;15.70;;;6.90;99.90;;;;;;6215981;23;20044;-85
2022/11/14 04:10:17;;;;;;;36.72;17.20;;;7.70;99.90;;;;;;6189809;23;20048;-86
2022/11/14 04:12:50;;;;;;;32.45;14.57;;;6.90;99.90;;;;;;6189330;23;20017;-86
2022/11/14 04:15:16;;;;;;;31.98;15.45;;;7.40;99.90;;;;;;6215832;23;20343;-86
2022/11/14 04:17:42;;;;;;;30.17;13.85;;;5.90;99.90;;;;;;6215766;23;20023;-86
2022/11/14 04:20:09;;;;;;;28.45;13.70;;;5.60;99.90;;;;;;6189153;23;20024;-86
2022/11/14 04:22:34;;;;;;;31.70;14.85;;;6.80;99.90;;;;;;6215358;23;20028;-85
2022/11/14 04:25:00;;;;;;;31.52;14.35;;;6.80;99.90;;;;;;6215049;23;20015;-86
2022/11/14 04:27:26;;;;;;;31.67;15.30;;;7.90;99.90;;;;;;6215949;23;20031;-84
2022/11/14 04:29:51;;;;;;;30.45;14.98;;;7.20;99.90;;;;;;6188964;23;20031;-86
2022/11/14 04:32:17;;;;;;;33.42;14.90;;;7.70;99.90;;;;;;6215412;23;20372;-86
2022/11/14 04:34:43;;;;;;;29.25;14.80;;;6.90;99.90;;;;;;6215425;23;20059;-86
2022/11/14 04:37:09;;;;;;;32.75;14.88;;;6.20;99.90;;;;;;6215798;23;20074;-86
2022/11/14 04:39:35;;;;;;;31.65;14.88;;;6.80;99.90;;;;;;6215717;23;20009;-86
2022/11/14 04:42:00;;;;;;;31.85;15.00;;;7.20;99.90;;;;;;6188364;23;20103;-86
2022/11/14 04:44:26;;;;;;;31.10;14.43;;;6.70;99.90;;;;;;6215622;23;20070;-86
2022/11/14 04:46:52;;;;;;;26.77;13.52;;;7.20;99.90;;;;;;6188726;23;20351;-86
2022/11/14 04:49:18;;;;;;;30.02;13.98;;;7.70;99.90;;;;;;6215698;23;20092;-87
2022/11/14 04:51:43;;;;;;;36.35;16.50;;;8.00;99.90;;;;;;6188883;23;20126;-86
2022/11/14 04:54:09;;;;;;;37.40;18.55;;;8.00;99.90;;;;;;6215594;23;20309;-86
2022/11/14 04:56:35;;;;;;;35.13;17.50;;;6.80;99.90;;;;;;6188774;23;20436;-87
2022/11/14 04:59:01;;;;;;;36.90;18.23;;;7.20;99.90;;;;;;6188467;23;20344;-86
2022/11/14 05:01:26;;;;;;;35.53;16.77;;;7.60;99.90;;;;;;6215423;23;20024;-86
2022/11/14 05:03:52;;;;;;;29.40;13.73;;;7.50;99.90;;;;;;6188079;23;20094;-86
2022/11/14 05:06:18;;;;;;;31.35;15.32;;;6.10;99.90;;;;;;6215290;23;20028;-86
2022/11/14 05:08:44;;;;;;;29.73;14.45;;;6.70;99.90;;;;;;6188417;23;20024;-86
2022/11/14 05:11:17;;;;;;;34.67;15.77;;;7.60;99.90;;;;;;6188403;23;20423;-86
2022/11/14 05:13:43;;;;;;;33.50;15.55;;;7.60;99.90;;;;;;6188668;23;20048;-86
2022/11/14 05:16:09;;;;;;;31.38;14.52;;;7.60;99.90;;;;;;6188065;23;20530;-86
2022/11/14 05:18:35;;;;;;;31.10;15.57;;;7.00;99.90;;;;;;6188728;23;20017;-86
2022/11/14 05:21:02;;;;;;;32.35;15.75;;;7.60;99.90;;;;;;6214680;23;20339;-85
2022/11/14 05:23:28;;;;;;;28.80;14.93;;;6.60;99.90;;;;;;6188449;23;20021;-86
2022/11/14 05:26:02;;;;;;;32.63;15.57;;;7.70;99.90;;;;;;6215029;23;20579;-86
2022/11/14 05:28:28;;;;;;;32.95;16.55;;;7.20;99.90;;;;;;6187589;23;20103;-86
2022/11/14 05:31:05;;;;;;;34.28;16.02;;;7.60;99.90;;;;;;6214907;23;20044;-86
2022/11/14 05:33:30;;;;;;;38.53;17.58;;;6.60;99.90;;;;;;6188290;23;20013;-87
2022/11/14 05:36:04;;;;;;;35.17;16.67;;;7.60;99.90;;;;;;6215193;23;20044;-86
2022/11/14 05:38:30;;;;;;;33.40;15.68;;;6.60;99.90;;;;;;6187910;23;20017;-87
2022/11/14 05:40:56;;;;;;;32.67;14.43;;;6.60;99.90;;;;;;6188129;23;20348;-87
2022/11/14 05:43:22;;;;;;;33.83;14.98;;;6.50;99.90;;;;;;6215197;23;20016;-87
2022/11/14 05:45:48;;;;;;;33.38;14.70;;;7.30;99.90;;;;;;6215543;23;20012;-86
2022/11/14 05:48:13;;;;;;;33.58;16.13;;;7.20;99.90;;;;;;6188192;23;20028;-86
2022/11/14 05:50:39;;;;;;;28.48;11.95;;;6.50;99.90;;;;;;6215410;23;20331;-86
2022/11/14 05:53:05;;;;;;;25.90;11.73;;;6.40;99.90;;;;;;6188091;23;20025;-86
2022/11/14 05:55:30;;;;;;;28.67;14.35;;;6.50;99.90;;;;;;6188329;23;20100;-86
2022/11/14 05:57:59;;;;;;;26.88;12.73;;;5.70;99.90;;;;;;6215156;23;20020;-86
2022/11/14 06:00:26;;;;;;;26.63;13.25;;;5.70;99.90;;;;;;6187900;23;20013;-86
2022/11/14 06:02:55;;;;;;;27.10;12.68;;;6.30;99.90;;;;;;6188131;23;20023;-86
2022/11/14 06:05:22;;;;;;;27.65;11.65;;;6.40;99.90;;;;;;6214538;23;20043;-86
2022/11/14 06:07:57;;;;;;;23.70;10.88;;;7.30;99.90;;;;;;6215111;23;20027;-86
2022/11/14 06:10:24;;;;;;;28.25;13.38;;;7.20;99.90;;;;;;6214701;23;20540;-86
2022/11/14 06:12:50;;;;;;;29.67;12.50;;;7.50;99.90;;;;;;6188376;23;20156;-86
2022/11/14 06:15:16;;;;;;;31.98;14.52;;;6.30;99.90;;;;;;6187979;23;20073;-86
2022/11/14 06:17:41;;;;;;;27.35;12.60;;;6.30;99.90;;;;;;6215228;23;20021;-86
2022/11/14 06:20:08;;;;;;;23.35;12.02;;;7.40;99.90;;;;;;6214700;23;20009;-86
2022/11/14 06:22:34;;;;;;;28.42;15.07;;;6.20;99.90;;;;;;6215213;23;20021;-86
2022/11/14 06:25:01;;;;;;;32.50;16.02;;;6.50;99.90;;;;;;6188320;23;20317;-86
2022/11/14 06:27:26;;;;;;;30.40;13.98;;;6.50;99.90;;;;;;6215023;23;20016;-86
2022/11/14 06:29:52;;;;;;;32.33;13.82;;;6.30;99.90;;;;;;6215023;23;20036;-86
2022/11/14 06:32:18;;;;;;;35.10;15.00;;;7.10;99.90;;;;;;6214506;23;20506;-86
2022/11/14 06:34:43;;;;;;;33.80;14.23;;;6.80;99.90;;;;;;6188462;23;20028;-86
2022/11/14 06:37:09;;;;;;;29.33;13.20;;;6.00;99.90;;;;;;6188235;23;20071;-86
2022/11/14 06:39:35;;;;;;;34.45;14.98;;;7.30;99.90;;;;;;6214958;23;20328;-86
2022/11/14 06:42:00;;;;;;;32.33;14.40;;;6.20;99.90;;;;;;6216636;23;20019;-86
2022/11/14 06:44:26;;;;;;;29.88;12.90;;;5.80;99.90;;;;;;6216678;23;20027;-86
2022/11/14 06:46:52;;;;;;;27.75;12.27;;;6.80;99.90;;;;;;6217191;23;20067;-86
2022/11/14 06:49:17;;;;;;;30.17;14.00;;;6.20;99.90;;;;;;6189989;23;20355;-86
2022/11/14 06:51:43;;;;;;;29.25;13.50;;;6.90;99.90;;;;;;6216804;23;20016;-86
2022/11/14 06:54:12;;;;;;;29.73;13.00;;;7.00;99.90;;;;;;6189908;23;20071;-86
2022/11/14 06:56:38;;;;;;;30.38;14.88;;;6.20;99.90;;;;;;6216928;23;20343;-86
2022/11/14 06:59:03;;;;;;;31.15;13.40;;;5.90;99.90;;;;;;6189920;23;20024;-86
2022/11/14 07:01:29;;;;;;;29.02;12.27;;;4.70;99.90;;;;;;6216934;23;20356;-86
2022/11/14 07:03:57;;;;;;;33.17;14.27;;;6.90;99.90;;;;;;6215634;23;20039;-85
2022/11/14 07:06:25;;;;;;;35.88;16.13;;;7.00;99.90;;;;;;6189337;23;20390;-86
2022/11/14 07:08:52;;;;;;;28.80;14.30;;;4.80;99.90;;;;;;6189722;23;20091;-86
2022/11/14 07:11:21;;;;;;;35.83;14.45;;;6.10;99.90;;;;;;6216708;23;20035;-86
2022/11/14 07:14:08;;;;;;;34.38;14.85;;;5.70;99.90;;;;;;6189688;23;20024;-86
2022/11/14 07:16:35;;;;;;;38.75;17.95;;;6.10;99.90;;;;;;6189183;23;20012;-86
2022/11/14 07:19:03;;;;;;;39.60;16.60;;;7.20;99.90;;;;;;6216732;23;20020;-86
2022/11/14 07:21:30;;;;;;;35.03;15.40;;;6.40;99.90;;;;;;6189732;23;20020;-86
2022/11/14 07:23:56;;;;;;;27.90;13.35;;;5.40;99.90;;;;;;6189551;23;20017;-85
2022/11/14 07:26:23;;;;;;;28.90;13.55;;;6.10;99.90;;;;;;6216621;23;20016;-86
2022/11/14 07:28:48;;;;;;;37.28;16.15;;;6.10;99.90;;;;;;6216401;23;20063;-86
2022/11/14 07:31:17;;;;;;;41.97;15.65;;;6.40;99.90;;;;;;6189357;23;20025;-86
2022/11/14 07:33:44;;;;;;;29.35;12.43;;;6.50;99.90;;;;;;6189438;23;20020;-87
2022/11/14 07:36:11;;;;;;;35.70;15.82;;;7.00;99.90;;;;;;6189645;23;20055;-90
2022/11/14 07:46:45;;;;;;;33.65;14.68;;;6.10;99.90;;;;;;6215855;23;20020;-91
2022/11/14 07:49:13;;;;;;;35.35;15.68;;;6.70;99.90;;;;;;6042181;23;20353;-90
2022/11/14 07:51:39;;;;;;;33.35;15.05;;;6.10;99.90;;;;;;6040848;23;20030;-89
2022/11/14 07:54:05;;;;;;;38.47;16.27;;;5.50;99.90;;;;;;6041984;23;20030;-90
2022/11/14 07:56:30;;;;;;;33.85;15.35;;;6.10;99.90;;;;;;6066180;23;20022;-88
2022/11/14 07:58:57;;;;;;;36.30;15.38;;;6.10;99.90;;;;;;6065547;23;20022;-89
2022/11/14 08:01:23;;;;;;;37.17;15.75;;;6.10;99.90;;;;;;6041897;23;20027;-88
2022/11/14 08:03:49;;;;;;;35.03;14.93;;;6.50;99.90;;;;;;6041793;23;20351;-87
2022/11/14 08:06:17;;;;;;;29.48;14.23;;;7.10;99.90;;;;;;6065412;23;20027;-88
2022/11/14 08:08:43;;;;;;;30.73;13.90;;;6.80;99.90;;;;;;6041789;23;20063;-89
2022/11/14 08:11:09;;;;;;;32.50;13.45;;;6.10;99.90;;;;;;6041927;23;20023;-86
2022/11/14 08:13:35;;;;;;;26.88;11.93;;;6.10;99.90;;;;;;6042070;23;20397;-89
2022/11/14 08:16:10;;;;;;;29.83;13.48;;;7.00;99.90;;;;;;6065900;23;20037;-87
2022/11/14 08:18:38;;;;;;;35.65;16.25;;;6.10;99.90;;;;;;6066751;23;20023;-90
2022/11/14 08:21:04;;;;;;;30.60;12.77;;;6.20;99.90;;;;;;6042205;23;20358;-87
2022/11/14 08:23:30;;;;;;;33.45;13.63;;;6.20;99.90;;;;;;6067920;23;20387;-86
2022/11/14 08:25:58;;;;;;;28.88;12.32;;;7.20;99.90;;;;;;6126163;23;20020;-86
2022/11/14 08:28:24;;;;;;;24.98;12.05;;;7.60;99.90;;;;;;6216836;23;20063;-89
2022/11/14 08:30:50;;;;;;;29.65;13.95;;;7.00;99.90;;;;;;6188644;23;20375;-86
2022/11/14 08:33:15;;;;;;;28.85;11.65;;;6.30;99.90;;;;;;6164393;23;20013;-86
2022/11/14 08:35:43;;;;;;;25.13;11.73;;;6.80;99.90;;;;;;6216917;23;20023;-89
2022/11/14 08:38:09;;;;;;;28.23;12.00;;;7.30;99.90;;;;;;6189246;23;20461;-87
2022/11/14 08:40:35;;;;;;;24.98;12.20;;;5.90;99.90;;;;;;6215596;23;20047;-88
2022/11/14 08:43:01;;;;;;;28.17;12.48;;;6.40;99.90;;;;;;6189452;23;20324;-86
2022/11/14 08:45:28;;;;;;;27.23;10.63;;;6.40;99.90;;;;;;6215632;23;20017;-86
2022/11/14 08:47:54;;;;;;;24.52;10.70;;;6.80;99.90;;;;;;6216052;23;20157;-86
2022/11/14 08:50:20;;;;;;;22.77;10.75;;;7.50;99.90;;;;;;6189347;23;20055;-87
2022/11/14 08:52:50;;;;;;;21.50;9.85;;;6.60;99.90;;;;;;6189106;23;20017;-87
2022/11/14 08:55:19;;;;;;;21.80;10.45;;;6.60;99.90;;;;;;6189058;23;20013;-90
2022/11/14 08:57:44;;;;;;;26.27;12.57;;;5.80;99.90;;;;;;6164583;23;20021;-85
2022/11/14 09:00:10;;;;;;;30.67;12.68;;;7.30;99.90;;;;;;6216144;23;20458;-86
2022/11/14 09:02:36;;;;;;;33.28;13.70;;;6.60;99.90;;;;;;6188964;23;20348;-86
2022/11/14 09:05:02;;;;;;;32.10;14.80;;;6.70;99.90;;;;;;6188721;23;20027;-86
2022/11/14 09:07:30;;;;;;;32.50;14.20;;;6.70;99.90;;;;;;6215964;23;20385;-88
2022/11/14 09:09:56;;;;;;;33.90;15.18;;;7.40;99.90;;;;;;6163636;23;20378;-88
2022/11/14 09:12:22;;;;;;;35.55;15.50;;;6.70;99.90;;;;;;6215887;23;20076;-87
2022/11/14 09:14:47;;;;;;;34.95;15.68;;;6.70;99.90;;;;;;6215669;23;20432;-87
2022/11/14 09:17:13;;;;;;;35.75;14.65;;;7.90;99.90;;;;;;6188966;23;20096;-88
2022/11/14 09:19:39;;;;;;;30.98;14.98;;;7.20;99.90;;;;;;6189079;23;20099;-87
2022/11/14 09:22:04;;;;;;;30.13;13.68;;;6.70;99.90;;;;;;6189426;23;20021;-88
2022/11/14 09:24:30;;;;;;;30.20;13.30;;;7.60;99.90;;;;;;6188706;23;20044;-87
2022/11/14 09:26:56;;;;;;;28.65;13.27;;;6.70;99.90;;;;;;6215867;23;20012;-87
2022/11/14 09:29:21;;;;;;;24.98;11.30;;;7.60;99.90;;;;;;6215824;23;20442;-87
2022/11/14 09:31:50;;;;;;;26.63;12.15;;;7.30;99.90;;;;;;6215433;23;20067;-87
2022/11/14 09:34:16;;;;;;;27.55;12.15;;;8.00;99.90;;;;;;6215377;23;20398;-87
2022/11/14 09:36:42;;;;;;;32.40;15.05;;;6.90;99.90;;;;;;6188730;23;20044;-87
2022/11/14 09:39:07;;;;;;;35.40;15.75;;;7.00;99.90;;;;;;6215771;23;20016;-88
2022/11/14 09:42:11;;;;;;;33.25;15.55;;;7.00;99.90;;;;;;6188700;23;20016;-87
2022/11/14 09:44:54;;;;;;;31.60;14.60;;;7.00;99.90;;;;;;6188626;23;20021;-87
2022/11/14 09:47:44;;;;;;;29.88;14.57;;;7.00;99.90;;;;;;6214135;23;20020;-87
2022/11/14 09:50:17;;;;;;;33.08;14.48;;;6.60;99.90;;;;;;6215725;23;20020;-88
2022/11/14 09:52:50;;;;;;;32.78;14.85;;;7.60;99.90;;;;;;6188719;23;20009;-87
2022/11/14 09:55:28;;;;;;;30.88;14.05;;;7.30;99.90;;;;;;6188819;23;20012;-87
2022/11/14 09:57:54;;;;;;;27.10;13.55;;;7.10;99.90;;;;;;6188643;23;20479;-87
2022/11/14 10:00:27;;;;;;;29.90;15.35;;;7.90;99.90;;;;;;6215535;23;20107;-87
2022/11/14 10:02:58;;;;;;;33.47;14.98;;;8.20;99.90;;;;;;6215119;23;20352;-86
2022/11/14 10:05:27;;;;;;;31.50;14.70;;;8.10;99.90;;;;;;6215371;23;20020;-87
2022/11/14 10:08:06;;;;;;;35.20;15.68;;;7.20;99.90;;;;;;6188573;23;20012;-87
2022/11/14 10:10:42;;;;;;;30.90;14.30;;;7.20;99.90;;;;;;6216055;23;20340;-87
2022/11/14 10:13:29;;;;;;;32.58;13.85;;;7.30;99.90;;;;;;6215461;23;20016;-88
2022/11/14 10:16:03;;;;;;;34.63;15.88;;;8.30;99.90;;;;;;6216758;23;20019;-86
2022/11/14 10:18:53;;;;;;;33.65;15.77;;;7.30;99.90;;;;;;6218817;23;20443;-87
2022/11/14 10:21:49;;;;;;;35.63;18.00;;;8.20;99.90;;;;;;6192240;23;20016;-87
2022/11/14 10:24:52;;;;;;;30.00;15.37;;;7.30;99.90;;;;;;6191620;23;20547;-86
2022/11/14 10:27:42;;;;;;;30.50;16.02;;;7.30;99.90;;;;;;6190832;23;20048;-86
2022/11/14 10:30:15;;;;;;;35.13;16.20;;;7.30;99.90;;;;;;6190675;23;20030;-88
2022/11/14 10:33:12;;;;;;;34.83;15.30;;;7.30;99.90;;;;;;6190956;23;20016;-91
2022/11/14 10:36:05;;;;;;;33.55;15.43;;;7.40;99.90;;;;;;6190260;23;20328;-86
2022/11/14 10:38:47;;;;;;;31.95;15.20;;;7.40;99.90;;;;;;6189981;23;20016;-86
2022/11/14 10:41:13;;;;;;;32.95;15.40;;;8.20;99.90;;;;;;6190907;23;20020;-88
2022/11/14 10:43:49;;;;;;;35.47;15.07;;;7.40;99.90;;;;;;6190523;23;20075;-86
2022/11/14 10:46:38;;;;;;;37.67;17.58;;;7.50;99.90;;;;;;6190254;23;20027;-88
2022/11/14 10:49:21;;;;;;;32.40;16.42;;;7.50;99.90;;;;;;6190138;23;20060;-87
2022/11/14 10:51:58;;;;;;;38.10;17.50;;;8.50;99.90;;;;;;6190428;23;20051;-88
2022/11/14 10:54:32;;;;;;;30.08;15.27;;;8.50;99.90;;;;;;6217175;23;20024;-87
2022/11/14 10:56:58;;;;;;;33.17;15.32;;;7.60;99.90;;;;;;6217456;23;20147;-86
2022/11/14 10:59:26;;;;;;;34.97;14.95;;;7.90;99.90;;;;;;6190304;23;20062;-89
2022/11/14 11:02:12;;;;;;;30.00;14.98;;;7.60;99.90;;;;;;6190732;23;20098;-90
2022/11/14 11:04:43;;;;;;;31.60;15.07;;;7.40;99.90;;;;;;6164847;23;20013;-87
2022/11/14 11:07:09;;;;;;;29.65;15.93;;;7.50;99.90;;;;;;6164575;23;20063;-85
2022/11/14 11:12:40;;;;;;;32.40;17.33;;;8.50;99.90;;;;;;6216930;23;20536;-88
2022/11/14 11:15:32;;;;;;;29.95;14.15;;;8.90;99.90;;;;;;6216157;23;20051;-85
2022/11/14 11:18:01;;;;;;;26.02;13.15;;;8.10;99.90;;;;;;6190168;23;20059;-86
2022/11/14 11:20:31;;;;;;;25.60;12.48;;;8.90;99.90;;;;;;6215699;23;20056;-85
2022/11/14 11:23:03;;;;;;;29.08;13.05;;;8.20;99.90;;;;;;6190433;23;20020;-87
2022/11/14 11:25:31;;;;;;;27.95;12.55;;;9.20;99.90;;;;;;6216505;23;20364;-86
2022/11/14 11:28:06;;;;;;;24.65;12.73;;;9.10;99.90;;;;;;6189495;23;20866;-85
2022/11/14 11:30:32;;;;;;;28.75;13.70;;;8.50;99.90;;;;;;6216867;23;20059;-87
2022/11/14 11:33:22;;;;;;;28.30;14.23;;;8.20;99.90;;;;;;6189728;23;20043;-87
2022/11/14 11:35:52;;;;;;;28.38;13.52;;;8.20;99.90;;;;;;6065641;23;20015;-86
2022/11/14 11:38:18;;;;;;;27.30;13.60;;;8.40;99.90;;;;;;6066169;23;20103;-86
2022/11/14 11:40:47;;;;;;;26.52;12.48;;;9.10;99.90;;;;;;6065614;23;20029;-86
2022/11/14 11:43:26;;;;;;;23.95;11.35;;;8.10;99.90;;;;;;6041840;23;20446;-87
2022/11/14 11:45:55;;;;;;;26.02;12.18;;;9.10;99.90;;;;;;6066241;23;20023;-88
2022/11/14 11:48:22;;;;;;;26.80;12.93;;;8.10;99.90;;;;;;6066505;23;20050;-89
2022/11/14 11:50:48;;;;;;;25.15;12.10;;;8.60;99.90;;;;;;6066693;23;20019;-89
2022/11/14 11:53:44;;;;;;;26.75;13.05;;;9.20;99.90;;;;;;6041638;23;20057;-88
2022/11/14 11:56:13;;;;;;;32.13;15.73;;;8.20;99.90;;;;;;6042747;23;20402;-89
2022/11/14 11:58:50;;;;;;;28.23;14.40;;;8.30;99.90;;;;;;6066676;23;20054;-87
2022/11/14 12:01:16;;;;;;;30.02;13.70;;;8.30;99.90;;;;;;6018598;23;20022;-87
2022/11/14 12:03:47;;;;;;;24.33;12.68;;;8.70;99.90;;;;;;6067038;23;20482;-90
2022/11/14 12:06:23;;;;;;;20.27;10.80;;;9.10;99.90;;;;;;6041432;23;20358;-90
2022/11/14 12:09:00;;;;;;;20.27;10.05;;;8.20;99.90;;;;;;6041904;23;20048;-90
2022/11/14 12:11:28;;;;;;;21.55;11.23;;;8.30;99.90;;;;;;6065710;23;20022;-89
2022/11/14 12:14:22;;;;;;;25.08;11.85;;;8.20;99.90;;;;;;6208702;23;20082;-90
2022/11/14 12:17:27;;;;;;;27.98;14.02;;;8.30;99.90;;;;;;6190154;23;20020;-90
2022/11/14 12:20:11;;;;;;;25.52;13.15;;;8.30;99.90;;;;;;6042598;23;20026;-90
2022/11/14 12:23:04;;;;;;;28.23;13.90;;;8.00;99.90;;;;;;6044832;23;20026;-88
2022/11/14 12:25:40;;;;;;;21.27;12.00;;;8.50;99.90;;;;;;6066150;23;20078;-87
2022/11/14 12:28:18;;;;;;;25.17;13.15;;;8.60;99.90;;;;;;6042155;23;20051;-89
2022/11/14 12:30:51;;;;;;;26.67;12.77;;;9.20;99.90;;;;;;6065941;23;20412;-87
2022/11/14 12:33:33;;;;;;;29.15;13.38;;;9.10;99.90;;;;;;6066105;23;20365;-91
2022/11/14 12:36:02;;;;;;;21.90;10.95;;;9.50;99.90;;;;;;6041944;23;20018;-92
2022/11/14 12:38:39;;;;;;;23.42;11.00;;;9.20;99.90;;;;;;6041352;23;20027;-88
2022/11/14 12:41:07;;;;;;;20.10;10.60;;;9.20;99.90;;;;;;6065803;23;20030;-87
2022/11/14 12:43:41;;;;;;;22.33;11.02;;;9.20;99.90;;;;;;6040713;23;20328;-88
2022/11/14 12:46:10;;;;;;;24.42;11.52;;;9.20;99.90;;;;;;6041668;23;20023;-87
2022/11/14 12:48:44;;;;;;;20.48;11.27;;;9.10;99.90;;;;;;6041419;23;20023;-87
2022/11/14 12:51:25;;;;;;;23.67;12.40;;;9.10;99.90;;;;;;6041559;23;20097;-86
2022/11/14 12:53:52;;;;;;;27.05;12.00;;;9.90;99.90;;;;;;6065118;23;20078;-85
2022/11/14 12:56:30;;;;;;;28.00;12.57;;;9.10;99.90;;;;;;6073460;23;20475;-87
2022/11/14 12:59:25;;;;;;;22.08;11.13;;;9.70;99.90;;;;;;6215614;23;20051;-86